Time;durP1;ratioP1;P1;durP2;ratioP2;P2;SDS_P1;SDS_P2;PMS_P1;PMS_P2;Temp;Humidity;BMP_temperature;BMP_pressure;BME280_temperature;BME280_humidity;BME280_pressure;Samples;Min_cycle;Max_cycle;Signal;HPM_P1;HPM_P2
2022/08/14 00:01:43;;;;;;;20.17;13.90;;;;;;;;;;4997396;28;20396;-77
2022/08/14 00:04:20;;;;;;;18.25;13.90;;;;;;;;;;4990764;28;20077;-76
2022/08/14 00:07:06;;;;;;;;;;;;;;;;;;5004730;28;20046;-77
2022/08/14 00:09:33;;;;;;;;;;;;;;;;;;5007246;28;19968;-77
2022/08/14 00:11:59;;;;;;;16.92;12.68;;;;;;;;;;4998214;28;19933;-77
2022/08/14 00:14:27;;;;;;;17.85;14.00;;;;;;;;;;5001243;28;20074;-76
2022/08/14 00:16:54;;;;;;;19.38;13.85;;;;;;;;;;5012127;28;20056;-75
2022/08/14 00:19:21;;;;;;;22.27;15.23;;;;;;;;;;5011509;28;20129;-77
2022/08/14 00:21:57;;;;;;;21.33;14.43;;;;;;;;;;5011180;28;20415;-75
2022/08/14 00:24:23;;;;;;;20.33;15.63;;;;;;;;;;5010420;28;20486;-76
2022/08/14 00:26:57;;;;;;;24.90;17.38;;;;;;;;;;5010430;28;20069;-77
2022/08/14 00:29:31;;;;;;;22.00;16.63;;;;;;;;;;4993429;28;20532;-77
2022/08/14 00:32:05;;;;;;;20.73;15.20;;;;;;;;;;4997113;28;20088;-76
2022/08/14 00:34:52;;;;;;;23.25;16.67;;;;;;;;;;5010866;28;20060;-76
2022/08/14 00:37:19;;;;;;;26.58;18.55;;;;;;;;;;4993198;28;20049;-77
2022/08/14 00:39:45;;;;;;;24.08;17.90;;;;;;;;;;5010432;28;20046;-78
2022/08/14 00:42:18;;;;;;;21.40;16.80;;;;;;;;;;5009855;28;20062;-76
2022/08/14 00:45:06;;;;;;;21.23;15.55;;;;;;;;;;5011870;28;20042;-76
2022/08/14 00:47:36;;;;;;;18.98;14.52;;;;;;;;;;5017828;28;20136;-76
2022/08/14 00:50:11;;;;;;;19.58;14.32;;;;;;;;;;5010260;28;20057;-77
2022/08/14 00:52:46;;;;;;;17.02;13.18;;;;;;;;;;5009161;28;20137;-76
2022/08/14 00:55:16;;;;;;;19.65;12.75;;;;;;;;;;5010067;28;20554;-76
2022/08/14 00:58:29;;;;;;;17.60;13.07;;;;;;;;;;5009688;28;20054;-77
2022/08/14 01:00:33;;;;;;;18.85;13.52;;;;;;;;;;5009105;28;20072;-76
2022/08/14 01:03:16;;;;;;;18.27;13.20;;;;;;;;;;5010149;28;20042;-77
2022/08/14 01:05:48;;;;;;;20.38;13.07;;;;;;;;;;5010233;28;20477;-76
2022/08/14 01:08:21;;;;;;;18.20;13.05;;;;;;;;;;5009584;28;20116;-77
2022/08/14 01:11:08;;;;;;;17.33;12.82;;;;;;;;;;5000721;28;20050;-76
2022/08/14 01:13:37;;;;;;;17.13;12.82;;;;;;;;;;5000647;28;20041;-76
2022/08/14 01:16:10;;;;;;;18.85;14.05;;;;;;;;;;5009962;28;20096;-76
2022/08/14 01:21:35;;;;;;;17.83;12.25;;;;;;;;;;5009854;28;20108;-76
2022/08/14 01:24:06;;;;;;;19.10;12.88;;;;;;;;;;5009683;28;20100;-76
2022/08/14 01:26:36;;;;;;;15.43;12.27;;;;;;;;;;5009630;28;20056;-76
2022/08/14 01:29:05;;;;;;;16.58;12.95;;;;;;;;;;5008929;28;20570;-76
2022/08/14 01:31:33;;;;;;;16.77;12.43;;;;;;;;;;5008934;28;20050;-77
2022/08/14 01:34:04;;;;;;;18.40;13.25;;;;;;;;;;5009599;28;20417;-76
2022/08/14 01:36:51;;;;;;;16.63;13.05;;;;;;;;;;5009732;28;20100;-76
2022/08/14 01:39:19;;;;;;;21.15;15.05;;;;;;;;;;5008987;28;20128;-76
2022/08/14 01:41:59;;;;;;;21.73;14.80;;;;;;;;;;5008439;28;20142;-77
2022/08/14 01:44:28;;;;;;;21.65;15.13;;;;;;;;;;5008689;28;20530;-77
2022/08/14 01:47:02;;;;;;;20.58;14.35;;;;;;;;;;4977572;28;20074;-76
2022/08/14 01:49:31;;;;;;;19.52;14.80;;;;;;;;;;4971807;28;20583;-77
2022/08/14 01:52:02;;;;;;;22.48;15.57;;;;;;;;;;4969520;28;20371;-76
2022/08/14 01:54:48;;;;;;;18.75;14.23;;;;;;;;;;4971077;28;20051;-76
2022/08/14 01:57:24;;;;;;;24.05;14.98;;;;;;;;;;4970591;28;20158;-77
2022/08/14 02:00:15;;;;;;;22.48;15.25;;;;;;;;;;4969749;28;20488;-76
2022/08/14 02:02:43;;;;;;;25.02;15.40;;;;;;;;;;4967133;28;20064;-77
2022/08/14 02:05:12;;;;;;;20.63;15.63;;;;;;;;;;4968753;28;20504;-75
2022/08/14 02:07:39;;;;;;;23.75;15.60;;;;;;;;;;4984150;28;20515;-75
2022/08/14 02:10:21;;;;;;;22.90;14.95;;;;;;;;;;4985290;28;20061;-75
2022/08/14 02:12:52;;;;;;;21.27;14.82;;;;;;;;;;4995954;28;20046;-75
2022/08/14 02:15:23;;;;;;;18.27;14.35;;;;;;;;;;5007812;28;20054;-75
2022/08/14 02:17:50;;;;;;;22.17;15.68;;;;;;;;;;5008567;28;20519;-76
2022/08/14 02:20:19;;;;;;;20.60;15.63;;;;;;;;;;4991824;28;20093;-75
2022/08/14 02:22:51;;;;;;;18.75;14.05;;;;;;;;;;5008215;28;20518;-75
2022/08/14 02:25:21;;;;;;;19.15;13.88;;;;;;;;;;5009944;28;20052;-75
2022/08/14 02:27:48;;;;;;;19.58;13.68;;;;;;;;;;5008926;28;20077;-76
2022/08/14 02:30:34;;;;;;;21.88;13.50;;;;;;;;;;4994996;28;20528;-76
2022/08/14 02:33:04;;;;;;;18.65;13.32;;;;;;;;;;4995382;28;20526;-76
2022/08/14 02:35:31;;;;;;;16.48;13.15;;;;;;;;;;5013050;28;20076;-76
2022/08/14 02:37:58;;;;;;;22.38;14.65;;;;;;;;;;5012536;28;20140;-76
2022/08/14 02:40:31;;;;;;;18.67;14.20;;;;;;;;;;5012864;28;20450;-76
2022/08/14 02:43:01;;;;;;;21.60;14.18;;;;;;;;;;5011717;28;20522;-75
2022/08/14 02:45:32;;;;;;;19.33;14.40;;;;;;;;;;5013142;28;20581;-75
2022/08/14 02:48:10;;;;;;;20.45;15.38;;;;;;;;;;5012356;28;20632;-75
2022/08/14 02:50:57;;;;;;;19.15;14.38;;;;;;;;;;5012308;28;20050;-77
2022/08/14 02:53:26;;;;;;;18.13;13.80;;;;;;;;;;5012338;28;20062;-77
2022/08/14 02:55:55;;;;;;;17.95;13.73;;;;;;;;;;5023672;28;20057;-76
2022/08/14 02:58:29;;;;;;;21.40;15.25;;;;;;;;;;5031626;28;20057;-76
2022/08/14 03:00:57;;;;;;;21.80;13.63;;;;;;;;;;5017876;28;20049;-76
2022/08/14 03:03:24;;;;;;;20.10;14.50;;;;;;;;;;5010810;28;20141;-76
2022/08/14 03:05:51;;;;;;;20.38;14.73;;;;;;;;;;5023417;28;20072;-77
2022/08/14 03:08:20;;;;;;;19.27;12.98;;;;;;;;;;5034268;28;20077;-76
2022/08/14 03:10:46;;;;;;;16.20;12.55;;;;;;;;;;5015706;28;20050;-75
2022/08/14 03:13:15;;;;;;;20.80;12.65;;;;;;;;;;5022702;28;20041;-75
2022/08/14 03:15:50;;;;;;;16.63;12.20;;;;;;;;;;5017935;28;20498;-75
2022/08/14 03:18:22;;;;;;;15.13;11.68;;;;;;;;;;5012665;28;20510;-76
2022/08/14 03:21:01;;;;;;;15.80;11.15;;;;;;;;;;5011901;28;20054;-76
2022/08/14 03:23:34;;;;;;;20.92;12.75;;;;;;;;;;5011958;28;20506;-77
2022/08/14 03:26:05;;;;;;;18.48;12.75;;;;;;;;;;5011754;28;20116;-78
2022/08/14 03:28:33;;;;;;;18.63;12.68;;;;;;;;;;5011020;28;20147;-77
2022/08/14 03:31:03;;;;;;;16.65;12.40;;;;;;;;;;5010931;28;20124;-76
2022/08/14 03:33:38;;;;;;;17.13;12.93;;;;;;;;;;5011915;28;20108;-76
2022/08/14 03:36:11;;;;;;;21.35;13.90;;;;;;;;;;4994435;28;20665;-76
2022/08/14 03:38:58;;;;;;;20.42;14.13;;;;;;;;;;5012010;28;20410;-77
2022/08/14 03:41:45;;;;;;;20.55;14.10;;;;;;;;;;4995010;28;20062;-75
2022/08/14 03:44:11;;;;;;;23.70;15.43;;;;;;;;;;5010687;28;20559;-76
2022/08/14 03:46:58;;;;;;;16.67;13.23;;;;;;;;;;5012270;28;20080;-74
2022/08/14 03:49:28;;;;;;;21.58;15.63;;;;;;;;;;5011863;28;20119;-77
2022/08/14 03:51:56;;;;;;;27.48;16.92;;;;;;;;;;5013398;28;20053;-77
2022/08/14 03:54:25;;;;;;;29.73;19.75;;;;;;;;;;5013879;28;20074;-77
2022/08/14 03:56:53;;;;;;;24.00;18.08;;;;;;;;;;4993758;28;20415;-77
2022/08/14 03:59:20;;;;;;;25.55;17.63;;;;;;;;;;5010045;28;20050;-75
2022/08/14 04:01:48;;;;;;;19.35;14.65;;;;;;;;;;5010466;28;20046;-76
2022/08/14 04:04:27;;;;;;;19.00;14.55;;;;;;;;;;4994579;28;20109;-76
2022/08/14 04:06:55;;;;;;;20.75;14.85;;;;;;;;;;5011637;28;20046;-77
2022/08/14 04:09:24;;;;;;;21.17;15.15;;;;;;;;;;5010466;28;20049;-76
2022/08/14 04:11:52;;;;;;;19.42;15.30;;;;;;;;;;5001857;28;20046;-77
2022/08/14 04:14:18;;;;;;;21.65;15.98;;;;;;;;;;5000942;28;20046;-76
2022/08/14 04:16:46;;;;;;;23.67;15.18;;;;;;;;;;5010259;28;20506;-77
2022/08/14 04:19:18;;;;;;;20.40;14.60;;;;;;;;;;5010244;28;20144;-77
2022/08/14 04:21:45;;;;;;;21.73;14.60;;;;;;;;;;4992737;28;20050;-77
2022/08/14 04:24:29;;;;;;;20.10;15.13;;;;;;;;;;5010282;28;20054;-77
2022/08/14 04:27:04;;;;;;;17.98;14.30;;;;;;;;;;5011506;28;20049;-78
2022/08/14 04:29:30;;;;;;;22.05;15.10;;;;;;;;;;5008893;28;20104;-76
2022/08/14 04:31:58;;;;;;;20.60;14.35;;;;;;;;;;5010233;28;20137;-76
2022/08/14 04:34:45;;;;;;;19.85;14.73;;;;;;;;;;4996192;28;20145;-75
2022/08/14 04:45:43;;;;;;;17.65;13.60;;;;;;;;;;5010738;28;20049;-75
2022/08/14 04:48:13;;;;;;;19.05;13.45;;;;;;;;;;4992540;28;20553;-77
2022/08/14 04:51:00;;;;;;;20.98;15.10;;;;;;;;;;5009564;28;20056;-77
2022/08/14 04:53:29;;;;;;;25.05;16.75;;;;;;;;;;5010697;28;20053;-75
2022/08/14 04:56:02;;;;;;;23.85;17.10;;;;;;;;;;5010961;28;20104;-76
2022/08/14 04:58:50;;;;;;;23.73;17.10;;;;;;;;;;5011018;28;20144;-77
2022/08/14 05:01:19;;;;;;;25.35;19.23;;;;;;;;;;5012185;28;20056;-77
2022/08/14 05:03:48;;;;;;;31.15;21.80;;;;;;;;;;5012557;28;20069;-76
2022/08/14 05:06:15;;;;;;;29.08;20.73;;;;;;;;;;5013382;28;20495;-76
2022/08/14 05:09:02;;;;;;;27.58;21.38;;;;;;;;;;5014679;28;20152;-77
2022/08/14 05:11:32;;;;;;;26.40;18.90;;;;;;;;;;5004224;28;20073;-78
2022/08/14 05:14:02;;;;;;;25.85;19.55;;;;;;;;;;4987350;28;20053;-75
2022/08/14 05:16:49;;;;;;;25.50;19.50;;;;;;;;;;4993368;28;20061;-78
2022/08/14 05:19:18;;;;;;;23.90;18.20;;;;;;;;;;4990576;28;20047;-77
2022/08/14 05:21:58;;;;;;;22.63;17.58;;;;;;;;;;4990222;28;20046;-78
2022/08/14 05:24:44;;;;;;;23.00;18.08;;;;;;;;;;4988954;28;20183;-74
2022/08/14 05:27:19;;;;;;;24.73;18.65;;;;;;;;;;4980293;28;20121;-77
2022/08/14 05:29:50;;;;;;;22.52;17.95;;;;;;;;;;4994407;28;20056;-74
2022/08/14 05:32:16;;;;;;;23.25;17.70;;;;;;;;;;4989032;28;20061;-75
2022/08/14 05:34:44;;;;;;;23.77;18.55;;;;;;;;;;4989926;28;20622;-76
2022/08/14 05:37:11;;;;;;;26.73;18.67;;;;;;;;;;4989317;28;20050;-76
2022/08/14 05:39:41;;;;;;;23.90;17.17;;;;;;;;;;4989370;28;20120;-76
2022/08/14 05:42:07;;;;;;;21.55;16.92;;;;;;;;;;4988644;28;20038;-76
2022/08/14 05:44:47;;;;;;;22.80;18.42;;;;;;;;;;5002623;28;20058;-76
2022/08/14 05:47:14;;;;;;;20.95;16.40;;;;;;;;;;4972493;28;20054;-76
2022/08/14 05:49:42;;;;;;;27.02;19.35;;;;;;;;;;4989468;28;20145;-77
2022/08/14 05:52:09;;;;;;;26.70;19.13;;;;;;;;;;5004142;28;20050;-77
2022/08/14 05:54:43;;;;;;;31.08;19.80;;;;;;;;;;4989769;28;20137;-77
2022/08/14 05:57:09;;;;;;;25.38;19.70;;;;;;;;;;4989260;28;20421;-76
2022/08/14 05:59:36;;;;;;;27.38;18.38;;;;;;;;;;4988107;28;20066;-76
2022/08/14 06:02:08;;;;;;;24.88;19.15;;;;;;;;;;4978362;28;20054;-76
2022/08/14 06:04:36;;;;;;;23.23;17.75;;;;;;;;;;5000891;28;20594;-76
2022/08/14 06:07:03;;;;;;;26.50;18.88;;;;;;;;;;5009446;28;20531;-76
2022/08/14 06:09:30;;;;;;;26.75;19.50;;;;;;;;;;5013205;28;20046;-76
2022/08/14 06:12:08;;;;;;;21.50;17.15;;;;;;;;;;5003835;28;20054;-76
2022/08/14 06:14:35;;;;;;;24.40;17.88;;;;;;;;;;4999836;28;20054;-76
2022/08/14 06:17:02;;;;;;;22.27;17.67;;;;;;;;;;5010171;28;20050;-77
2022/08/14 06:19:28;;;;;;;24.02;16.25;;;;;;;;;;5014464;28;20242;-77
2022/08/14 06:21:55;;;;;;;23.13;17.15;;;;;;;;;;5003378;28;20085;-77
2022/08/14 06:24:25;;;;;;;25.23;16.77;;;;;;;;;;4993235;28;20042;-75
2022/08/14 06:26:51;;;;;;;19.10;16.48;;;;;;;;;;4993377;28;20050;-75
2022/08/14 06:29:26;;;;;;;20.75;15.82;;;;;;;;;;4992446;28;20054;-76
2022/08/14 06:31:57;;;;;;;21.73;16.25;;;;;;;;;;4992568;28;20050;-76
2022/08/14 06:34:44;;;;;;;18.55;15.77;;;;;;;;;;4993139;28;20057;-76
2022/08/14 06:37:48;;;;;;;22.35;17.02;;;;;;;;;;4992483;28;20054;-76
2022/08/14 06:40:15;;;;;;;19.55;16.45;;;;;;;;;;4993413;28;20182;-76
2022/08/14 06:42:53;;;;;;;23.50;16.42;;;;;;;;;;4991244;28;20042;-76
2022/08/14 06:45:22;;;;;;;21.65;14.73;;;;;;;;;;4987058;28;20051;-75
2022/08/14 06:47:53;;;;;;;18.05;13.85;;;;;;;;;;4972537;28;20582;-76
2022/08/14 06:50:20;;;;;;;18.30;13.90;;;;;;;;;;4972263;28;20086;-75
2022/08/14 06:52:53;;;;;;;17.85;13.68;;;;;;;;;;4972382;28;20093;-75
2022/08/14 06:55:20;;;;;;;18.98;13.98;;;;;;;;;;4973855;28;20078;-75
2022/08/14 06:57:53;;;;;;;18.85;13.20;;;;;;;;;;4974479;28;20082;-74
2022/08/14 07:00:22;;;;;;;16.77;13.05;;;;;;;;;;4974237;28;20142;-75
2022/08/14 07:05:45;;;;;;;16.13;12.85;;;;;;;;;;4974114;28;20051;-75
2022/08/14 07:08:28;;;;;;;19.83;13.13;;;;;;;;;;4973655;28;20102;-76
2022/08/14 07:10:58;;;;;;;19.55;12.60;;;;;;;;;;4979810;28;20057;-76
2022/08/14 07:13:26;;;;;;;16.85;12.32;;;;;;;;;;5003916;28;20041;-76
2022/08/14 07:15:54;;;;;;;17.95;11.60;;;;;;;;;;4994589;28;20048;-77
2022/08/14 07:18:25;;;;;;;16.27;11.93;;;;;;;;;;5011175;28;20545;-77
2022/08/14 07:20:52;;;;;;;17.58;13.00;;;;;;;;;;5014075;28;20139;-76
2022/08/14 07:23:22;;;;;;;16.33;11.93;;;;;;;;;;5011606;28;20107;-77
2022/08/14 07:25:50;;;;;;;15.02;12.00;;;;;;;;;;5012370;28;20096;-76
2022/08/14 07:28:18;;;;;;;16.98;11.85;;;;;;;;;;5015583;28;20096;-79
2022/08/14 07:30:46;;;;;;;17.33;12.30;;;;;;;;;;5017842;28;20172;-79
2022/08/14 07:33:17;;;;;;;16.23;12.10;;;;;;;;;;5016935;28;20181;-78
2022/08/14 07:35:49;;;;;;;16.75;11.80;;;;;;;;;;5015907;28;20054;-80
2022/08/14 07:38:26;;;;;;;17.52;11.80;;;;;;;;;;5013219;28;20054;-77
2022/08/14 07:41:01;;;;;;;17.77;12.70;;;;;;;;;;5012149;28;20050;-78
2022/08/14 07:43:28;;;;;;;19.17;12.00;;;;;;;;;;5011589;28;20045;-78
2022/08/14 07:45:55;;;;;;;14.40;11.40;;;;;;;;;;5012340;28;20123;-78
2022/08/14 07:48:22;;;;;;;12.25;10.68;;;;;;;;;;4994538;28;20454;-78
2022/08/14 07:50:50;;;;;;;17.40;11.48;;;;;;;;;;5011924;28;20499;-78
2022/08/14 07:53:21;;;;;;;14.63;10.98;;;;;;;;;;4994093;28;20080;-79
2022/08/14 07:55:47;;;;;;;15.13;11.13;;;;;;;;;;5012964;28;20046;-77
2022/08/14 07:58:36;;;;;;;16.75;10.68;;;;;;;;;;5014016;28;20060;-77
2022/08/14 08:01:05;;;;;;;16.15;10.98;;;;;;;;;;5011873;28;20046;-78
2022/08/14 08:03:35;;;;;;;14.38;10.07;;;;;;;;;;4997850;28;20042;-77
2022/08/14 08:06:02;;;;;;;14.30;10.63;;;;;;;;;;4993410;28;20133;-79
2022/08/14 08:08:35;;;;;;;13.15;10.05;;;;;;;;;;5006717;28;20054;-78
2022/08/14 08:11:13;;;;;;;19.77;10.93;;;;;;;;;;4975024;28;20467;-78
2022/08/14 08:13:41;;;;;;;17.40;10.57;;;;;;;;;;4994900;28;20081;-77
2022/08/14 08:16:14;;;;;;;14.13;10.30;;;;;;;;;;4987147;28;20435;-77
2022/08/14 08:18:41;;;;;;;14.95;10.57;;;;;;;;;;4999037;28;20053;-78
2022/08/14 08:21:10;;;;;;;14.43;10.38;;;;;;;;;;4991207;28;20089;-78
2022/08/14 08:23:37;;;;;;;13.88;10.80;;;;;;;;;;4997879;28;20080;-79
2022/08/14 08:26:08;;;;;;;16.98;10.77;;;;;;;;;;4991818;28;20438;-78
2022/08/14 08:28:35;;;;;;;15.70;10.80;;;;;;;;;;4991044;28;20101;-78
2022/08/14 08:31:10;;;;;;;15.02;10.40;;;;;;;;;;4989738;28;20470;-78
2022/08/14 08:33:38;;;;;;;12.73;10.10;;;;;;;;;;4990109;28;20096;-79
2022/08/14 08:36:07;;;;;;;17.30;10.02;;;;;;;;;;4989737;28;20046;-78
2022/08/14 08:38:38;;;;;;;12.30;10.35;;;;;;;;;;4990926;28;20463;-78
2022/08/14 08:41:26;;;;;;;18.98;10.98;;;;;;;;;;4989127;28;20400;-78
2022/08/14 08:44:02;;;;;;;15.43;10.52;;;;;;;;;;4990822;28;20056;-76
2022/08/14 08:46:30;;;;;;;14.45;9.93;;;;;;;;;;4973953;28;20052;-78
2022/08/14 08:49:00;;;;;;;12.75;9.20;;;;;;;;;;4990231;28;20495;-78
2022/08/14 08:51:27;;;;;;;11.17;9.27;;;;;;;;;;4994042;28;20091;-78
2022/08/14 08:54:06;;;;;;;15.98;9.30;;;;;;;;;;4992231;28;20305;-78
2022/08/14 08:56:40;;;;;;;16.20;9.88;;;;;;;;;;4990815;28;20061;-79
2022/08/14 08:59:24;;;;;;;14.13;9.75;;;;;;;;;;4991759;28;20097;-78
2022/08/14 09:02:00;;;;;;;13.00;8.82;;;;;;;;;;4992179;28;20101;-77
2022/08/14 09:04:34;;;;;;;12.63;9.23;;;;;;;;;;4994684;28;20066;-77
2022/08/14 09:07:13;;;;;;;13.65;8.65;;;;;;;;;;4996848;28;20046;-79
2022/08/14 09:09:51;;;;;;;12.82;9.25;;;;;;;;;;4991388;28;20109;-77
2022/08/14 09:12:27;;;;;;;11.43;8.45;;;;;;;;;;4997203;28;20120;-78
2022/08/14 09:14:58;;;;;;;17.55;8.63;;;;;;;;;;5005244;28;20514;-78
2022/08/14 09:17:25;;;;;;;14.18;7.80;;;;;;;;;;5010099;28;20556;-78
2022/08/14 09:19:52;;;;;;;13.65;7.70;;;;;;;;;;5010008;28;20050;-77
2022/08/14 09:22:19;;;;;;;11.25;7.85;;;;;;;;;;4992674;28;20114;-78
2022/08/14 09:25:02;;;;;;;11.45;7.95;;;;;;;;;;5009675;28;20133;-77
2022/08/14 09:27:32;;;;;;;10.02;6.85;;;;;;;;;;5010078;28;20060;-77
2022/08/14 09:30:00;;;;;;;8.48;5.78;;;;;;;;;;5008766;28;20467;-77
2022/08/14 09:32:31;;;;;;;9.70;5.55;;;;;;;;;;5010079;28;20214;-77
2022/08/14 09:35:23;;;;;;;9.63;5.60;;;;;;;;;;5024046;28;20558;-79
2022/08/14 09:38:11;;;;;;;11.13;5.22;;;;;;;;;;5035073;28;20058;-77
2022/08/14 09:41:09;;;;;;;8.88;5.03;;;;;;;;;;5025224;28;20413;-77
2022/08/14 09:43:57;;;;;;;7.22;5.07;;;;;;;;;;5010308;28;20050;-78
2022/08/14 09:46:26;;;;;;;9.23;5.47;;;;;;;;;;5010128;28;20080;-78
2022/08/14 09:49:04;;;;;;;8.43;5.40;;;;;;;;;;5010163;28;20054;-78
2022/08/14 09:51:31;;;;;;;10.95;5.18;;;;;;;;;;5009028;28;20472;-79
2022/08/14 09:54:16;;;;;;;;;;;;;;;;;;5009711;28;20138;-78
2022/08/14 09:56:49;;;;;;;7.32;5.22;;;;;;;;;;5009744;28;19933;-78
2022/08/14 09:59:25;;;;;;;8.07;5.18;;;;;;;;;;5009812;28;20054;-78
2022/08/14 10:01:54;;;;;;;8.45;5.40;;;;;;;;;;5011328;28;20056;-78
2022/08/14 10:04:23;;;;;;;7.25;4.68;;;;;;;;;;5009611;28;20046;-78
2022/08/14 10:07:03;;;;;;;6.95;4.85;;;;;;;;;;5010309;28;20054;-78
2022/08/14 10:09:30;;;;;;;6.40;5.25;;;;;;;;;;5010499;28;20050;-79
2022/08/14 10:12:00;;;;;;;5.10;4.60;;;;;;;;;;5002128;28;20088;-79
2022/08/14 10:14:32;;;;;;;6.35;4.40;;;;;;;;;;4994163;28;20058;-78
2022/08/14 10:17:03;;;;;;;6.72;4.10;;;;;;;;;;5014312;28;20050;-76
2022/08/14 10:19:32;;;;;;;9.13;4.10;;;;;;;;;;5011132;28;20084;-76
2022/08/14 10:22:09;;;;;;;5.47;4.22;;;;;;;;;;5010836;28;20076;-78
2022/08/14 10:24:56;;;;;;;8.85;4.20;;;;;;;;;;5017517;28;20097;-77
2022/08/14 10:27:25;;;;;;;5.40;4.10;;;;;;;;;;5013347;28;20058;-77
2022/08/14 10:29:54;;;;;;;5.97;3.92;;;;;;;;;;4998373;28;20089;-77
2022/08/14 10:32:25;;;;;;;6.47;4.30;;;;;;;;;;5013815;28;20054;-77
2022/08/14 10:35:06;;;;;;;7.50;4.13;;;;;;;;;;5014727;28;20081;-77
2022/08/14 10:37:50;;;;;;;6.63;3.83;;;;;;;;;;5016913;28;20050;-78
2022/08/14 10:40:28;;;;;;;9.23;3.97;;;;;;;;;;5015423;28;20058;-78
2022/08/14 10:43:15;;;;;;;5.88;4.50;;;;;;;;;;5011376;28;20585;-78
2022/08/14 10:45:52;;;;;;;6.65;4.07;;;;;;;;;;4993210;28;20100;-78
2022/08/14 10:48:39;;;;;;;6.00;4.32;;;;;;;;;;5009076;28;20060;-78
2022/08/14 10:51:12;;;;;;;5.18;4.03;;;;;;;;;;5009025;28;20054;-78
2022/08/14 10:53:39;;;;;;;5.28;3.90;;;;;;;;;;5013259;28;20064;-78
2022/08/14 10:56:12;;;;;;;4.38;3.70;;;;;;;;;;5013831;28;20073;-79
2022/08/14 10:58:59;;;;;;;4.18;3.60;;;;;;;;;;5013304;28;20529;-78
2022/08/14 11:01:30;;;;;;;6.38;3.25;;;;;;;;;;5013753;28;20081;-78
2022/08/14 11:04:03;;;;;;;5.35;3.75;;;;;;;;;;5013245;28;20120;-77
2022/08/14 11:06:32;;;;;;;6.63;3.92;;;;;;;;;;5013845;28;20052;-78
2022/08/14 11:09:09;;;;;;;4.65;3.38;;;;;;;;;;5012702;28;20076;-77
2022/08/14 11:11:41;;;;;;;8.45;3.70;;;;;;;;;;5003794;28;20476;-77
2022/08/14 11:14:08;;;;;;;5.47;3.88;;;;;;;;;;5004042;28;20042;-77
2022/08/14 11:16:37;;;;;;;7.30;3.40;;;;;;;;;;5013164;28;20049;-78
2022/08/14 11:19:06;;;;;;;7.57;3.78;;;;;;;;;;5012389;28;20587;-78
2022/08/14 11:21:38;;;;;;;4.70;3.33;;;;;;;;;;5011689;28;20046;-78
2022/08/14 11:24:12;;;;;;;5.60;3.60;;;;;;;;;;5013147;28;20049;-78
2022/08/14 11:27:00;;;;;;;6.90;3.60;;;;;;;;;;5011576;28;20053;-78
2022/08/14 11:29:29;;;;;;;3.95;3.40;;;;;;;;;;4993002;28;20046;-78
2022/08/14 11:32:02;;;;;;;7.20;3.55;;;;;;;;;;5012096;28;20513;-78
2022/08/14 11:34:28;;;;;;;4.22;3.70;;;;;;;;;;4995242;28;20058;-78
2022/08/14 11:37:12;;;;;;;6.82;3.63;;;;;;;;;;5012120;28;20045;-77
2022/08/14 11:39:52;;;;;;;7.38;3.17;;;;;;;;;;4998809;28;20061;-78
2022/08/14 11:42:23;;;;;;;5.78;3.63;;;;;;;;;;5011432;28;20570;-78
2022/08/14 11:45:09;;;;;;;4.68;3.17;;;;;;;;;;5013488;28;20052;-77
2022/08/14 11:47:44;;;;;;;8.80;3.25;;;;;;;;;;5011921;28;20129;-77
2022/08/14 11:50:32;;;;;;;5.45;3.20;;;;;;;;;;5014070;28;20570;-77
2022/08/14 11:53:03;;;;;;;6.80;3.40;;;;;;;;;;5010917;28;20046;-78
2022/08/14 11:55:34;;;;;;;4.93;3.40;;;;;;;;;;5014014;28;20053;-78
2022/08/14 11:58:05;;;;;;;5.05;3.10;;;;;;;;;;5012749;28;20057;-78
2022/08/14 12:00:32;;;;;;;7.10;3.47;;;;;;;;;;5012697;28;20495;-78
2022/08/14 12:03:05;;;;;;;3.40;3.08;;;;;;;;;;5014780;28;20410;-77
2022/08/14 12:05:38;;;;;;;10.52;3.50;;;;;;;;;;5014786;28;20050;-78
2022/08/14 12:08:08;;;;;;;4.30;3.20;;;;;;;;;;4996417;28;20136;-78
2022/08/14 12:10:40;;;;;;;5.43;3.60;;;;;;;;;;5010987;28;20050;-77
2022/08/14 12:13:13;;;;;;;4.68;3.10;;;;;;;;;;4999519;28;20411;-78
2022/08/14 12:15:43;;;;;;;5.57;3.83;;;;;;;;;;5012922;28;20534;-78
2022/08/14 12:18:12;;;;;;;3.47;3.15;;;;;;;;;;5012184;28;20407;-78
2022/08/14 12:20:45;;;;;;;3.88;3.30;;;;;;;;;;5010411;28;20433;-77
2022/08/14 12:23:20;;;;;;;5.40;3.40;;;;;;;;;;5011629;28;20061;-78
2022/08/14 12:25:47;;;;;;;5.18;3.40;;;;;;;;;;5012065;28;20050;-78
2022/08/14 12:28:35;;;;;;;3.88;3.42;;;;;;;;;;5009820;28;20053;-78
2022/08/14 12:31:22;;;;;;;3.75;3.38;;;;;;;;;;5011505;28;20048;-77
2022/08/14 12:33:56;;;;;;;8.60;3.75;;;;;;;;;;5010364;28;20053;-78
2022/08/14 12:36:22;;;;;;;6.05;3.50;;;;;;;;;;5011506;28;20085;-78
2022/08/14 12:38:50;;;;;;;3.83;3.28;;;;;;;;;;5010770;28;20072;-77
2022/08/14 12:41:20;;;;;;;4.65;3.80;;;;;;;;;;5012349;28;20141;-78
2022/08/14 12:43:55;;;;;;;7.50;3.47;;;;;;;;;;5011583;28;20077;-78
2022/08/14 12:46:35;;;;;;;4.97;3.78;;;;;;;;;;5011554;28;20045;-78
2022/08/14 12:49:12;;;;;;;6.90;3.65;;;;;;;;;;5011494;28;20103;-77
2022/08/14 12:51:42;;;;;;;5.10;3.72;;;;;;;;;;5020576;28;20046;-79
2022/08/14 12:54:16;;;;;;;7.20;3.50;;;;;;;;;;5030884;28;20049;-78
2022/08/14 12:57:03;;;;;;;6.45;3.42;;;;;;;;;;5010184;28;20050;-77
2022/08/14 12:59:34;;;;;;;9.00;3.80;;;;;;;;;;4993090;28;20058;-78
2022/08/14 13:02:18;;;;;;;4.70;3.45;;;;;;;;;;5010263;28;20053;-76
2022/08/14 13:04:47;;;;;;;7.25;3.13;;;;;;;;;;5011457;28;20046;-77
2022/08/14 13:07:15;;;;;;;5.30;3.28;;;;;;;;;;5011116;28;20511;-76
2022/08/14 13:09:43;;;;;;;5.82;3.60;;;;;;;;;;5010614;28;20050;-77
2022/08/14 13:12:12;;;;;;;5.03;3.60;;;;;;;;;;5003721;28;20050;-77
2022/08/14 13:14:59;;;;;;;7.93;3.60;;;;;;;;;;5008928;28;20046;-78
2022/08/14 13:17:27;;;;;;;7.32;3.35;;;;;;;;;;5010151;28;20592;-77
2022/08/14 13:19:55;;;;;;;5.25;3.45;;;;;;;;;;5011719;28;20142;-77
2022/08/14 13:22:29;;;;;;;5.72;3.78;;;;;;;;;;5013254;28;20058;-80
2022/08/14 13:25:04;;;;;;;5.05;3.95;;;;;;;;;;5012503;28;20069;-77
2022/08/14 13:27:32;;;;;;;5.60;4.00;;;;;;;;;;5012032;28;20050;-79
2022/08/14 13:30:06;;;;;;;6.50;4.22;;;;;;;;;;4994395;28;20253;-79
2022/08/14 13:32:39;;;;;;;4.97;4.05;;;;;;;;;;5011559;28;20077;-79
2022/08/14 13:35:06;;;;;;;10.27;4.53;;;;;;;;;;5011104;28;20052;-78
2022/08/14 13:37:43;;;;;;;4.97;4.20;;;;;;;;;;5008906;28;20054;-79
2022/08/14 13:40:13;;;;;;;6.28;4.40;;;;;;;;;;5010967;28;20042;-79
2022/08/14 13:42:41;;;;;;;9.10;4.80;;;;;;;;;;5009503;28;20049;-79
2022/08/14 13:45:08;;;;;;;10.80;4.30;;;;;;;;;;5011657;28;20070;-78
2022/08/14 13:47:36;;;;;;;8.85;4.55;;;;;;;;;;5010099;28;20096;-77
2022/08/14 13:50:05;;;;;;;8.40;4.88;;;;;;;;;;5011548;28;20073;-78
2022/08/14 13:52:39;;;;;;;6.90;4.93;;;;;;;;;;5010962;28;20133;-78
2022/08/14 13:55:23;;;;;;;7.88;4.60;;;;;;;;;;5011021;28;20088;-78
2022/08/14 13:57:55;;;;;;;9.68;4.60;;;;;;;;;;5013041;28;20116;-78
2022/08/14 14:00:35;;;;;;;5.82;4.25;;;;;;;;;;5012583;28;20046;-78
2022/08/14 14:03:19;;;;;;;5.57;4.20;;;;;;;;;;5011301;28;20056;-79
2022/08/14 14:05:53;;;;;;;10.13;4.28;;;;;;;;;;5009183;28;20046;-78
2022/08/14 14:08:21;;;;;;;15.52;4.40;;;;;;;;;;5011058;28;20046;-78
2022/08/14 14:11:08;;;;;;;8.57;4.00;;;;;;;;;;5000925;28;20054;-78
2022/08/14 14:13:36;;;;;;;8.10;4.30;;;;;;;;;;5002104;28;20060;-78
2022/08/14 14:16:10;;;;;;;;;;;;;;;;;;5009193;28;20085;-78
2022/08/14 14:18:38;;;;;;;8.95;4.20;;;;;;;;;;5009283;28;19921;-78
2022/08/14 14:21:07;;;;;;;6.70;3.83;;;;;;;;;;5009813;28;20058;-78
2022/08/14 14:23:34;;;;;;;7.72;4.22;;;;;;;;;;5009046;28;20454;-78
2022/08/14 14:26:01;;;;;;;5.72;4.15;;;;;;;;;;5010173;28;20058;-78
2022/08/14 14:28:30;;;;;;;7.30;4.35;;;;;;;;;;5014674;28;20129;-77
2022/08/14 14:30:59;;;;;;;11.77;5.00;;;;;;;;;;5014801;28;20046;-78
2022/08/14 14:33:33;;;;;;;8.18;4.50;;;;;;;;;;5014861;28;20061;-77
2022/08/14 14:36:20;;;;;;;8.90;4.45;;;;;;;;;;4996364;28;20113;-77
2022/08/14 14:38:57;;;;;;;7.40;4.50;;;;;;;;;;4994182;28;20057;-78
2022/08/14 14:41:25;;;;;;;9.55;4.90;;;;;;;;;;4993004;28;20141;-78
2022/08/14 14:44:05;;;;;;;9.40;4.97;;;;;;;;;;4992314;28;20137;-78
2022/08/14 14:46:35;;;;;;;10.20;4.70;;;;;;;;;;4992283;28;20055;-78
2022/08/14 14:49:03;;;;;;;7.20;4.95;;;;;;;;;;4994330;28;20731;-78
2022/08/14 14:51:30;;;;;;;8.95;4.70;;;;;;;;;;4993195;28;20479;-78
2022/08/14 14:53:56;;;;;;;7.22;4.93;;;;;;;;;;4993495;28;20085;-77
2022/08/14 14:56:24;;;;;;;10.00;4.38;;;;;;;;;;4996707;28;20060;-78
2022/08/14 14:59:11;;;;;;;9.63;4.53;;;;;;;;;;4996034;28;20418;-79
2022/08/14 15:01:38;;;;;;;12.25;4.35;;;;;;;;;;4993881;28;20395;-78
2022/08/14 15:04:07;;;;;;;7.45;4.70;;;;;;;;;;4991683;28;20077;-78
2022/08/14 15:06:46;;;;;;;5.40;4.35;;;;;;;;;;4996957;28;20070;-78
2022/08/14 15:09:13;;;;;;;7.85;4.47;;;;;;;;;;4984169;28;20050;-78
2022/08/14 15:11:43;;;;;;;7.45;4.45;;;;;;;;;;5001829;28;20358;-79
2022/08/14 15:14:11;;;;;;;10.05;4.55;;;;;;;;;;4989411;28;20107;-80
2022/08/14 15:16:57;;;;;;;8.32;4.45;;;;;;;;;;5009320;28;20068;-78